Rawlins, WY

10:07 AM MST on February 06, 2016 (GMT -0700)
Rawlins Municipal | | Change Station
CLOSE
Current Station
Airport
Location: Rawlins,
Elevation: 6814 ft
Nearby Weather Stations

Elev 6814 ft 41.81 °N, 107.20 °W | Updated 14 minutes ago

Partly Cloudy
Partly Cloudy
24 °F
Feels Like 11 °F
N
16
Wind Variable Wind from WSW
Gusts 25 mph

Today
High -- | Low -- °F
--% Chance of Precip.
Yesterday
High -- | Low -- °F
Precip. -- in
Pressure 30.43 in
Visibility 10.0 miles
Clouds Few 10000 ft
Windchill 11 °F
Dew Point 14 °F
Humidity 65%
Rainfall 0.00 in
Snow Depth Not available.
7:16 AM 5:30 PM
Waning Crescent, 5% visible
METAR KRWL 061653Z AUTO 25014G22KT 10SM FEW100 M04/M10 A3030 RMK AO2 PK WND 25026/1616 PRESFR SLP304 T10441100
Pressure 30.43 in
Visibility 10.0 miles
Clouds Few 10000 ft
Windchill 11 °F
Dew Point 14 °F
Humidity 65%
Rainfall 0.00 in
Snow Depth Not available.
7:16 AM 5:30 PM
Waning Crescent, 5% visible
METAR KRWL 061653Z AUTO 25014G22KT 10SM FEW100 M04/M10 A3030 RMK AO2 PK WND 25026/1616 PRESFR SLP304 T10441100

10-Day Weather Forecast

Almanac

Astronomy

Feb. 06, 2016 Rise Set
Actual Time
Civil Twilight
Nautical Twilight
Astronomical Twilight
Moon
Length of Visible Light
Length of Day
Tomorrow will be .
, % of the Moon is Illuminated

Today's Extremes

State Highs State Lows

Community

WunderPhotos

Upload Photos

1,891,024 photos uploaded!

WunderBlog® & News

Nearby

Air Quality

  Air Quality AQ Index Pollutant
Not available.

Snow Depth

Station Depth Elevation

Earthquake Activity

City Distance Mag. Time & Date
Minimum magnitude displayed is 2.5.

Coastal Water Temperatures

Place Temperature

Stations

Nearby Weather Stations

Station Location Temp. Windchill Dew Point Humidity Wind Precip. Elev Updated Type
                   

Watches & Warnings

There are currently no watches in effect.